TEJ504 SCEL-SACO
Flight info
| Callsign | TEJ504 |
|---|---|
| Flight time | 0h 57m |
| Altitude | 39000 |
| Route | GUVOL6B GUVOL UZ128 PAMAK PAMAK1U |
| Aircraft | A319/M-SDE3FGHIRWY/LB1 |
Departure
| Time | 2026-05-06 02:34 |
|---|---|
| Airport | Comodoro Arturo Merino Benítez International Airport (SCEL) |
Arrival
| Time | 2026-05-06 03:31 |
|---|---|
| Airport | Ingeniero Aeronáutico Ambrosio L.V. Taravella International Airport (SACO) |
| Time | Latitude | Longitude | Altitude | Speed | Heading |
|---|---|---|---|---|---|
| 2026-05-06 02:09 | -33.39898 | -70.78988 | 1564 ft | 0 kts | 177° |
| 2026-05-06 02:23 | -33.39888 | -70.78989 | 1564 ft | 4 kts | 177° |
| 2026-05-06 02:24 | -33.39866 | -70.78990 | 1564 ft | 4 kts | 175° |
| 2026-05-06 02:24 | -33.39842 | -70.78999 | 1564 ft | 4 kts | 123° |
| 2026-05-06 02:24 | -33.39836 | -70.79025 | 1564 ft | 1 kts | 88° |
| 2026-05-06 02:24 | -33.39836 | -70.79026 | 1564 ft | 0 kts | 87° |
| 2026-05-06 02:27 | -33.39835 | -70.79001 | 1564 ft | 6 kts | 87° |
| 2026-05-06 02:27 | -33.39832 | -70.78924 | 1564 ft | 13 kts | 87° |
| 2026-05-06 02:28 | -33.39765 | -70.78854 | 1564 ft | 15 kts | 61° |
| 2026-05-06 02:28 | -33.39698 | -70.78782 | 1565 ft | 16 kts | 351° |
| 2026-05-06 02:28 | -33.39566 | -70.78784 | 1565 ft | 21 kts | 359° |
| 2026-05-06 02:28 | -33.39420 | -70.78787 | 1565 ft | 21 kts | 359° |
| 2026-05-06 02:29 | -33.39270 | -70.78792 | 1564 ft | 22 kts | 356° |
| 2026-05-06 02:29 | -33.39118 | -70.78805 | 1564 ft | 22 kts | 356° |
| 2026-05-06 02:29 | -33.38961 | -70.78817 | 1564 ft | 23 kts | 358° |
| 2026-05-06 02:29 | -33.38799 | -70.78824 | 1564 ft | 23 kts | 358° |
| 2026-05-06 02:30 | -33.38635 | -70.78830 | 1564 ft | 24 kts | 357° |
| 2026-05-06 02:30 | -33.38486 | -70.78838 | 1564 ft | 21 kts | 358° |
| 2026-05-06 02:30 | -33.38338 | -70.78846 | 1564 ft | 21 kts | 358° |
| 2026-05-06 02:30 | -33.38188 | -70.78853 | 1564 ft | 22 kts | 358° |
| 2026-05-06 02:31 | -33.38034 | -70.78863 | 1565 ft | 22 kts | 356° |
| 2026-05-06 02:31 | -33.37877 | -70.78871 | 1565 ft | 23 kts | 358° |
| 2026-05-06 02:31 | -33.37717 | -70.78881 | 1564 ft | 24 kts | 356° |
| 2026-05-06 02:31 | -33.37566 | -70.78844 | 1564 ft | 23 kts | 57° |
| 2026-05-06 02:32 | -33.37591 | -70.78678 | 1564 ft | 22 kts | 155° |
| 2026-05-06 02:32 | -33.37641 | -70.78670 | 1565 ft | 1 kts | 178° |
| 2026-05-06 02:32 | -33.37666 | -70.78669 | 1565 ft | 13 kts | 178° |
| 2026-05-06 02:32 | -33.37996 | -70.78654 | 1564 ft | 87 kts | 177° |
| 2026-05-06 02:33 | -33.38838 | -70.78605 | 1565 ft | 152 kts | 177° |
| 2026-05-06 02:33 | -33.39572 | -70.78566 | 1866 ft | 158 kts | 176° |
| 2026-05-06 02:34 | -33.43464 | -70.78330 | 3738 ft | 199 kts | 177° |
| 2026-05-06 02:34 | -33.44935 | -70.78283 | 4176 ft | 224 kts | 184° |
| 2026-05-06 02:34 | -33.46416 | -70.79055 | 4631 ft | 249 kts | 225° |
| 2026-05-06 02:34 | -33.47262 | -70.80899 | 5196 ft | 267 kts | 261° |
| 2026-05-06 02:35 | -33.47367 | -70.83137 | 6153 ft | 270 kts | 276° |
| 2026-05-06 02:35 | -33.47232 | -70.85381 | 7178 ft | 271 kts | 279° |
| 2026-05-06 02:35 | -33.47087 | -70.87640 | 8242 ft | 273 kts | 278° |
| 2026-05-06 02:35 | -33.47006 | -70.89926 | 9288 ft | 276 kts | 277° |
| 2026-05-06 02:36 | -33.46996 | -70.92253 | 10274 ft | 283 kts | 276° |
| 2026-05-06 02:36 | -33.46640 | -70.94616 | 10639 ft | 297 kts | 300° |
| 2026-05-06 02:36 | -33.45273 | -70.96493 | 11037 ft | 309 kts | 329° |
| 2026-05-06 02:36 | -33.43247 | -70.97421 | 11773 ft | 317 kts | 346° |
| 2026-05-06 02:37 | -33.41049 | -70.97764 | 12609 ft | 323 kts | 355° |
| 2026-05-06 02:37 | -33.38774 | -70.97656 | 13432 ft | 330 kts | 359° |
| 2026-05-06 02:37 | -33.36464 | -70.97496 | 14197 ft | 334 kts | 359° |
| 2026-05-06 02:37 | -33.34135 | -70.97328 | 14970 ft | 336 kts | 358° |
| 2026-05-06 02:38 | -33.31823 | -70.97144 | 15699 ft | 338 kts | 359° |
| 2026-05-06 02:38 | -33.29463 | -70.96939 | 16378 ft | 342 kts | 358° |
| 2026-05-06 02:38 | -33.27052 | -70.96719 | 17127 ft | 344 kts | 358° |
| 2026-05-06 02:38 | -33.24682 | -70.96496 | 17855 ft | 347 kts | 358° |
| 2026-05-06 02:39 | -33.22267 | -70.96039 | 18503 ft | 358 kts | 8° |
| 2026-05-06 02:39 | -33.19902 | -70.94939 | 19068 ft | 373 kts | 19° |
| 2026-05-06 02:39 | -33.17691 | -70.93215 | 19668 ft | 384 kts | 27° |
| 2026-05-06 02:39 | -33.15503 | -70.91335 | 20279 ft | 389 kts | 27° |
| 2026-05-06 02:40 | -33.13293 | -70.89442 | 20870 ft | 393 kts | 26° |
| 2026-05-06 02:40 | -33.11056 | -70.87530 | 21455 ft | 398 kts | 26° |
| 2026-05-06 02:40 | -33.08792 | -70.85598 | 21983 ft | 402 kts | 26° |
| 2026-05-06 02:40 | -33.06497 | -70.83646 | 22511 ft | 407 kts | 25° |
| 2026-05-06 02:41 | -33.04180 | -70.81676 | 23015 ft | 412 kts | 25° |
| 2026-05-06 02:41 | -33.01877 | -70.79679 | 23520 ft | 417 kts | 26° |
| 2026-05-06 02:41 | -32.99536 | -70.77604 | 23973 ft | 421 kts | 26° |
| 2026-05-06 02:41 | -32.97188 | -70.75497 | 24396 ft | 425 kts | 26° |
| 2026-05-06 02:42 | -32.94809 | -70.73368 | 24810 ft | 429 kts | 25° |
| 2026-05-06 02:42 | -32.92291 | -70.71540 | 25200 ft | 419 kts | 15° |
| 2026-05-06 02:42 | -32.89621 | -70.70273 | 25590 ft | 410 kts | 6° |
| 2026-05-06 02:42 | -32.86859 | -70.69566 | 25996 ft | 401 kts | 356° |
| 2026-05-06 02:43 | -32.84099 | -70.69339 | 26419 ft | 398 kts | 352° |
| 2026-05-06 02:43 | -32.81324 | -70.69174 | 26853 ft | 401 kts | 352° |
| 2026-05-06 02:43 | -32.78526 | -70.68995 | 27275 ft | 404 kts | 352° |
| 2026-05-06 02:43 | -32.75705 | -70.68806 | 27680 ft | 407 kts | 352° |
| 2026-05-06 02:44 | -32.72870 | -70.68613 | 28088 ft | 410 kts | 352° |
| 2026-05-06 02:44 | -32.70008 | -70.68417 | 28462 ft | 413 kts | 352° |
| 2026-05-06 02:44 | -32.67125 | -70.68172 | 28827 ft | 422 kts | 356° |
| 2026-05-06 02:44 | -32.64203 | -70.67334 | 29210 ft | 444 kts | 8° |
| 2026-05-06 02:45 | -32.61356 | -70.65678 | 29554 ft | 469 kts | 21° |
| 2026-05-06 02:45 | -32.58776 | -70.63151 | 29900 ft | 496 kts | 36° |
| 2026-05-06 02:45 | -32.56672 | -70.59791 | 30223 ft | 518 kts | 49° |
| 2026-05-06 02:45 | -32.54803 | -70.56117 | 30501 ft | 521 kts | 50° |
| 2026-05-06 02:46 | -32.52923 | -70.52431 | 30797 ft | 524 kts | 50° |
| 2026-05-06 02:46 | -32.51029 | -70.48734 | 31203 ft | 523 kts | 49° |
| 2026-05-06 02:46 | -32.49141 | -70.45053 | 31610 ft | 522 kts | 49° |
| 2026-05-06 02:46 | -32.47255 | -70.41383 | 32048 ft | 522 kts | 49° |
| 2026-05-06 02:47 | -32.45364 | -70.37713 | 32559 ft | 521 kts | 49° |
| 2026-05-06 02:47 | -32.43482 | -70.34064 | 33088 ft | 518 kts | 49° |
| 2026-05-06 02:47 | -32.41625 | -70.30470 | 33592 ft | 518 kts | 49° |
| 2026-05-06 02:47 | -32.39752 | -70.26835 | 34016 ft | 519 kts | 50° |
| 2026-05-06 02:48 | -32.38128 | -70.22981 | 34455 ft | 530 kts | 59° |
| 2026-05-06 02:48 | -32.36946 | -70.18811 | 34806 ft | 541 kts | 69° |
| 2026-05-06 02:48 | -32.36203 | -70.14420 | 35173 ft | 546 kts | 73° |
| 2026-05-06 02:48 | -32.35517 | -70.09994 | 35475 ft | 547 kts | 72° |
| 2026-05-06 02:49 | -32.34816 | -70.05572 | 35725 ft | 548 kts | 72° |
| 2026-05-06 02:49 | -32.34104 | -70.01161 | 35872 ft | 546 kts | 71° |
| 2026-05-06 02:49 | -32.33382 | -69.96751 | 36055 ft | 544 kts | 70° |
| 2026-05-06 02:49 | -32.32664 | -69.92357 | 36199 ft | 544 kts | 72° |
| 2026-05-06 02:50 | -32.31946 | -69.87957 | 36328 ft | 546 kts | 73° |
| 2026-05-06 02:50 | -32.31221 | -69.83534 | 36482 ft | 549 kts | 71° |
| 2026-05-06 02:50 | -32.30492 | -69.79096 | 36744 ft | 551 kts | 71° |
| 2026-05-06 02:50 | -32.29764 | -69.74638 | 37038 ft | 552 kts | 71° |
| 2026-05-06 02:51 | -32.29036 | -69.70171 | 37344 ft | 553 kts | 71° |
| 2026-05-06 02:51 | -32.28305 | -69.65711 | 37671 ft | 554 kts | 71° |
| 2026-05-06 02:51 | -32.27571 | -69.61248 | 38003 ft | 552 kts | 71° |
| 2026-05-06 02:51 | -32.26835 | -69.56797 | 38292 ft | 550 kts | 71° |
| 2026-05-06 02:52 | -32.26100 | -69.52371 | 38532 ft | 550 kts | 71° |
| 2026-05-06 02:52 | -32.25358 | -69.47929 | 38839 ft | 552 kts | 71° |
| 2026-05-06 02:52 | -32.24627 | -69.43545 | 38922 ft | 550 kts | 71° |
| 2026-05-06 02:53 | -32.23160 | -69.34693 | 38933 ft | 547 kts | 71° |
| 2026-05-06 02:53 | -32.21698 | -69.25904 | 38927 ft | 544 kts | 71° |
| 2026-05-06 02:54 | -32.20223 | -69.17147 | 38912 ft | 543 kts | 71° |
| 2026-05-06 02:54 | -32.18745 | -69.08396 | 38905 ft | 544 kts | 71° |
| 2026-05-06 02:55 | -32.17262 | -68.99650 | 38907 ft | 544 kts | 71° |
| 2026-05-06 02:55 | -32.15770 | -68.90905 | 38895 ft | 544 kts | 71° |
| 2026-05-06 02:56 | -32.14268 | -68.82136 | 38900 ft | 545 kts | 71° |
| 2026-05-06 02:56 | -32.12770 | -68.73389 | 38886 ft | 544 kts | 71° |
| 2026-05-06 02:57 | -32.11263 | -68.64647 | 38885 ft | 544 kts | 71° |
| 2026-05-06 02:57 | -32.09748 | -68.55912 | 38888 ft | 544 kts | 71° |
| 2026-05-06 02:58 | -32.08226 | -68.47177 | 38892 ft | 544 kts | 71° |
| 2026-05-06 02:58 | -32.06693 | -68.38454 | 38891 ft | 544 kts | 71° |
| 2026-05-06 02:59 | -32.05165 | -68.29724 | 38891 ft | 544 kts | 71° |
| 2026-05-06 02:59 | -32.03712 | -68.20971 | 38890 ft | 544 kts | 72° |
| 2026-05-06 03:00 | -32.02281 | -68.12204 | 38891 ft | 544 kts | 72° |
| 2026-05-06 03:00 | -32.00817 | -68.03458 | 38877 ft | 544 kts | 71° |
| 2026-05-06 03:01 | -31.99334 | -67.94768 | 38876 ft | 545 kts | 71° |
| 2026-05-06 03:01 | -31.97841 | -67.86021 | 38870 ft | 545 kts | 71° |
| 2026-05-06 03:02 | -31.96350 | -67.77253 | 38871 ft | 546 kts | 71° |
| 2026-05-06 03:02 | -31.94853 | -67.68481 | 38867 ft | 547 kts | 71° |
| 2026-05-06 03:03 | -31.93343 | -67.59702 | 38863 ft | 548 kts | 71° |
| 2026-05-06 03:03 | -31.91822 | -67.50908 | 38858 ft | 549 kts | 71° |
| 2026-05-06 03:04 | -31.90292 | -67.42102 | 38853 ft | 549 kts | 71° |
| 2026-05-06 03:04 | -31.88751 | -67.33287 | 38851 ft | 551 kts | 71° |
| 2026-05-06 03:05 | -31.87211 | -67.24455 | 38852 ft | 552 kts | 71° |
| 2026-05-06 03:05 | -31.85658 | -67.15600 | 38849 ft | 553 kts | 71° |
| 2026-05-06 03:06 | -31.84358 | -67.08243 | 38845 ft | 553 kts | 71° |
| 2026-05-06 03:06 | -31.82778 | -66.99369 | 38843 ft | 555 kts | 71° |
| 2026-05-06 03:07 | -31.81202 | -66.90487 | 38853 ft | 555 kts | 71° |
| 2026-05-06 03:07 | -31.79614 | -66.81587 | 38853 ft | 556 kts | 71° |
| 2026-05-06 03:08 | -31.78018 | -66.72694 | 38856 ft | 556 kts | 70° |
| 2026-05-06 03:08 | -31.75871 | -66.64053 | 38859 ft | 550 kts | 64° |
| 2026-05-06 03:09 | -31.73625 | -66.55521 | 38862 ft | 550 kts | 65° |
| 2026-05-06 03:09 | -31.71370 | -66.46925 | 38865 ft | 551 kts | 64° |
| 2026-05-06 03:10 | -31.69097 | -66.38331 | 38869 ft | 551 kts | 64° |
| 2026-05-06 03:10 | -31.66813 | -66.29745 | 38879 ft | 551 kts | 64° |
| 2026-05-06 03:11 | -31.64519 | -66.21142 | 38876 ft | 551 kts | 64° |
| 2026-05-06 03:11 | -31.62237 | -66.12607 | 38878 ft | 552 kts | 64° |
| 2026-05-06 03:12 | -31.59927 | -66.04013 | 38673 ft | 553 kts | 64° |
| 2026-05-06 03:12 | -31.58766 | -65.99707 | 38423 ft | 553 kts | 64° |
| 2026-05-06 03:12 | -31.57609 | -65.95407 | 38144 ft | 553 kts | 64° |
| 2026-05-06 03:12 | -31.56451 | -65.91105 | 37878 ft | 552 kts | 64° |
| 2026-05-06 03:13 | -31.55297 | -65.86816 | 37343 ft | 552 kts | 65° |
| 2026-05-06 03:13 | -31.54130 | -65.82495 | 36349 ft | 558 kts | 65° |
| 2026-05-06 03:13 | -31.52960 | -65.78169 | 35739 ft | 554 kts | 65° |
| 2026-05-06 03:13 | -31.51799 | -65.73864 | 34999 ft | 553 kts | 66° |
| 2026-05-06 03:14 | -31.50643 | -65.69581 | 34174 ft | 549 kts | 66° |
| 2026-05-06 03:14 | -31.49507 | -65.65386 | 33188 ft | 546 kts | 66° |
| 2026-05-06 03:14 | -31.48360 | -65.61166 | 31883 ft | 543 kts | 66° |
| 2026-05-06 03:14 | -31.47209 | -65.56954 | 30438 ft | 543 kts | 66° |
| 2026-05-06 03:15 | -31.46051 | -65.52744 | 28787 ft | 543 kts | 67° |
| 2026-05-06 03:15 | -31.44903 | -65.48557 | 27423 ft | 536 kts | 68° |
| 2026-05-06 03:15 | -31.43779 | -65.44437 | 26146 ft | 526 kts | 68° |
| 2026-05-06 03:15 | -31.42678 | -65.40396 | 25079 ft | 513 kts | 68° |
| 2026-05-06 03:16 | -31.41612 | -65.36485 | 24310 ft | 495 kts | 68° |
| 2026-05-06 03:16 | -31.40577 | -65.32708 | 23515 ft | 480 kts | 69° |
| 2026-05-06 03:16 | -31.39571 | -65.29042 | 22678 ft | 466 kts | 69° |
| 2026-05-06 03:16 | -31.38582 | -65.25503 | 22086 ft | 448 kts | 68° |
| 2026-05-06 03:17 | -31.37555 | -65.22117 | 21487 ft | 434 kts | 66° |
| 2026-05-06 03:17 | -31.36501 | -65.18862 | 20943 ft | 424 kts | 65° |
| 2026-05-06 03:17 | -31.35424 | -65.15655 | 20412 ft | 421 kts | 64° |
| 2026-05-06 03:17 | -31.34349 | -65.12474 | 19897 ft | 419 kts | 64° |
| 2026-05-06 03:18 | -31.33285 | -65.09297 | 19375 ft | 417 kts | 65° |
| 2026-05-06 03:18 | -31.32243 | -65.06139 | 18879 ft | 415 kts | 65° |
| 2026-05-06 03:18 | -31.31218 | -65.02989 | 18371 ft | 413 kts | 65° |
| 2026-05-06 03:18 | -31.30208 | -64.99855 | 17822 ft | 411 kts | 66° |
| 2026-05-06 03:19 | -31.29206 | -64.96733 | 17301 ft | 408 kts | 66° |
| 2026-05-06 03:19 | -31.28226 | -64.93685 | 16792 ft | 404 kts | 66° |
| 2026-05-06 03:19 | -31.27239 | -64.90621 | 16246 ft | 402 kts | 66° |
| 2026-05-06 03:19 | -31.26254 | -64.87581 | 15707 ft | 399 kts | 66° |
| 2026-05-06 03:20 | -31.24291 | -64.81549 | 14568 ft | 395 kts | 66° |
| 2026-05-06 03:20 | -31.23314 | -64.78557 | 13977 ft | 393 kts | 66° |
| 2026-05-06 03:20 | -31.22337 | -64.75571 | 13335 ft | 392 kts | 66° |
| 2026-05-06 03:21 | -31.21371 | -64.72617 | 12719 ft | 387 kts | 66° |
| 2026-05-06 03:21 | -31.20428 | -64.69730 | 12280 ft | 371 kts | 66° |
| 2026-05-06 03:21 | -31.19511 | -64.66921 | 11508 ft | 369 kts | 66° |
| 2026-05-06 03:21 | -31.18601 | -64.64140 | 10884 ft | 363 kts | 66° |
| 2026-05-06 03:22 | -31.17701 | -64.61444 | 10638 ft | 347 kts | 66° |
| 2026-05-06 03:22 | -31.16841 | -64.58893 | 10522 ft | 329 kts | 65° |
| 2026-05-06 03:22 | -31.16020 | -64.56472 | 10401 ft | 313 kts | 65° |
| 2026-05-06 03:22 | -31.15242 | -64.54189 | 10184 ft | 303 kts | 65° |
| 2026-05-06 03:23 | -31.14460 | -64.51901 | 9944 ft | 297 kts | 65° |
| 2026-05-06 03:23 | -31.13706 | -64.49693 | 9833 ft | 295 kts | 65° |
| 2026-05-06 03:23 | -31.12948 | -64.47469 | 9703 ft | 295 kts | 65° |
| 2026-05-06 03:23 | -31.12186 | -64.45237 | 9227 ft | 297 kts | 65° |
| 2026-05-06 03:24 | -31.11430 | -64.43014 | 8900 ft | 292 kts | 65° |
| 2026-05-06 03:24 | -31.10684 | -64.40819 | 8381 ft | 290 kts | 65° |
| 2026-05-06 03:24 | -31.09950 | -64.38654 | 8066 ft | 281 kts | 65° |
| 2026-05-06 03:24 | -31.09255 | -64.36592 | 7937 ft | 264 kts | 65° |
| 2026-05-06 03:25 | -31.08619 | -64.34636 | 7692 ft | 255 kts | 70° |
| 2026-05-06 03:25 | -31.08342 | -64.32605 | 7281 ft | 257 kts | 85° |
| 2026-05-06 03:25 | -31.08393 | -64.30535 | 6917 ft | 253 kts | 88° |
| 2026-05-06 03:25 | -31.08447 | -64.28493 | 6444 ft | 251 kts | 87° |
| 2026-05-06 03:26 | -31.08496 | -64.26467 | 5989 ft | 245 kts | 87° |
| 2026-05-06 03:26 | -31.08544 | -64.24541 | 5789 ft | 230 kts | 87° |
| 2026-05-06 03:26 | -31.08676 | -64.22731 | 5649 ft | 223 kts | 102° |
| 2026-05-06 03:26 | -31.09591 | -64.21290 | 5389 ft | 229 kts | 146° |
| 2026-05-06 03:27 | -31.11115 | -64.20901 | 5143 ft | 228 kts | 186° |
| 2026-05-06 03:27 | -31.12657 | -64.21125 | 4896 ft | 223 kts | 183° |
| 2026-05-06 03:27 | -31.14194 | -64.21124 | 4572 ft | 213 kts | 179° |
| 2026-05-06 03:27 | -31.15631 | -64.21090 | 4297 ft | 204 kts | 179° |
| 2026-05-06 03:28 | -31.17006 | -64.21063 | 4041 ft | 192 kts | 179° |
| 2026-05-06 03:28 | -31.18300 | -64.21041 | 3800 ft | 181 kts | 179° |
| 2026-05-06 03:28 | -31.19527 | -64.21021 | 3572 ft | 172 kts | 179° |
| 2026-05-06 03:28 | -31.20700 | -64.21002 | 3367 ft | 163 kts | 179° |
| 2026-05-06 03:29 | -31.21786 | -64.20984 | 3160 ft | 150 kts | 179° |
| 2026-05-06 03:29 | -31.22813 | -64.20967 | 2959 ft | 145 kts | 179° |
| 2026-05-06 03:29 | -31.23809 | -64.20951 | 2777 ft | 142 kts | 178° |
| 2026-05-06 03:29 | -31.24790 | -64.20935 | 2589 ft | 140 kts | 179° |
| 2026-05-06 03:30 | -31.25754 | -64.20919 | 2399 ft | 137 kts | 179° |
| 2026-05-06 03:30 | -31.26701 | -64.20903 | 2218 ft | 135 kts | 179° |
| 2026-05-06 03:30 | -31.27631 | -64.20886 | 2045 ft | 132 kts | 178° |
| 2026-05-06 03:30 | -31.28548 | -64.20873 | 1834 ft | 131 kts | 178° |
| 2026-05-06 03:31 | -31.29457 | -64.20860 | 1672 ft | 130 kts | 178° |
| 2026-05-06 03:31 | -31.30318 | -64.20852 | 1621 ft | 110 kts | 179° |
| 2026-05-06 03:31 | -31.30945 | -64.20838 | 1618 ft | 67 kts | 179° |
| 2026-05-06 03:31 | -31.31260 | -64.20830 | 1615 ft | 33 kts | 179° |
| 2026-05-06 03:32 | -31.31449 | -64.20860 | 1617 ft | 20 kts | 231° |
| 2026-05-06 03:32 | -31.31469 | -64.21007 | 1613 ft | 12 kts | 260° |
| 2026-05-06 03:32 | -31.31471 | -64.21106 | 1613 ft | 12 kts | 256° |
| 2026-05-06 03:32 | -31.31487 | -64.21179 | 1614 ft | 5 kts | 263° |
| 2026-05-06 03:33 | -31.31488 | -64.21185 | 1613 ft | 0 kts | 263° |